Montgomery Center, Vermont
Current Conditions -  °F | °C
As of 8:15 AM on Friday 24 Oct 2014 (Local Time) from KEFK Reporting Station
Haze Haze  
Wind Chill: 35°   Ceiling: 700
Heat Index: 41°   Visibility: 5mi
Dew Point: 40°   Wind: 10mph
Humidity: 95%   Direction: 350°N
Pressure: 29.82"   Gusts: NA
Location:  44.88°N, 72.6°W
Report Text: KEFK 241215Z AUTO 35009KT 5SM BR BKN007 OVC011 05/05 A2982 RMK AO2 T00520045
Loading
Personal Weather Stations






























Interactive Weather Map
Tropical Storm Tracking
New forecast layout! Learn more

10-Day Weather Forecast

Advertisements
Track Severe Weather on mobile